Terminal Aerodrome Forecast
Issued by NWS

Home | Current Version | Previous Version | Graphics & Text | Print | Product List | Glossary On
Versions: 1 2 3 4 5 6 7 8 9 10 11 12 13 14 15 16 17 18 19 20 21 22
000
FTUS43 KTOP 160928 AAA
TAFMHK
TAF AMD
KMHK 160928Z 1609/1706 16008KT P6SM VCTS BKN090CB
      TEMPO 1611/1614 4SM TSRA OVC025CB
     FM161400 17006KT 6SM -SHRA VCTS OVC020CB
     FM161600 19008KT P6SM SCT030
     FM162000 22008KT P6SM TSRA BKN040CB
     FM170200 28005KT P6SM BKN110=

USA.gov is the U.S. government's official web portal to all federal, state and local government web resources and services.